AFR47VQ ELLX-LFML
Flight info
| Callsign | AFR47VQ |
|---|---|
| Flight time | 1h 9m |
| Altitude | 23000 |
| Route | GTQ A242 POGOL/N0463F310 DCT LASAT DCT MOROK DCT GILIR DCT GEVEA DCT INCUS DCT BALSI |
| Aircraft | A319/M-SDE3FGHIRWY/LB1 |
Departure
| Time | 2026-05-04 11:19 |
|---|---|
| Airport | Luxembourg-Findel International Airport (ELLX) |
Arrival
| Time | 2026-05-04 12:29 |
|---|---|
| Airport | Marseille Provence Airport (LFML) |
| Time | Latitude | Longitude | Altitude | Speed | Heading |
|---|---|---|---|---|---|
| 2026-05-04 10:47 | 49.63355 | 6.21686 | 1248 ft | 0 kts | 330° |
| 2026-05-04 11:06 | 49.63345 | 6.21696 | 1251 ft | 4 kts | 333° |
| 2026-05-04 11:08 | 49.63290 | 6.21701 | 1245 ft | 0 kts | 60° |
| 2026-05-04 11:13 | 49.63297 | 6.21718 | 1251 ft | 4 kts | 60° |
| 2026-05-04 11:13 | 49.63310 | 6.21765 | 1238 ft | 6 kts | 78° |
| 2026-05-04 11:13 | 49.63290 | 6.21815 | 1245 ft | 6 kts | 146° |
| 2026-05-04 11:13 | 49.63249 | 6.21854 | 1242 ft | 8 kts | 149° |
| 2026-05-04 11:14 | 49.63198 | 6.21900 | 1244 ft | 9 kts | 147° |
| 2026-05-04 11:14 | 49.63183 | 6.21981 | 1250 ft | 9 kts | 70° |
| 2026-05-04 11:14 | 49.63209 | 6.22071 | 1247 ft | 9 kts | 64° |
| 2026-05-04 11:16 | 49.63573 | 6.23114 | 1224 ft | 18 kts | 60° |
| 2026-05-04 11:16 | 49.63636 | 6.23283 | 1223 ft | 18 kts | 59° |
| 2026-05-04 11:16 | 49.63656 | 6.23436 | 1222 ft | 10 kts | 128° |
| 2026-05-04 11:17 | 49.63626 | 6.23467 | 1222 ft | 5 kts | 152° |
| 2026-05-04 11:17 | 49.63588 | 6.23497 | 1222 ft | 7 kts | 152° |
| 2026-05-04 11:19 | 49.63355 | 6.23064 | 1219 ft | 82 kts | 240° |
| 2026-05-04 11:19 | 49.62962 | 6.22011 | 1225 ft | 141 kts | 240° |
| 2026-05-04 11:19 | 49.62415 | 6.20535 | 1483 ft | 165 kts | 239° |
| 2026-05-04 11:19 | 49.61844 | 6.18981 | 2099 ft | 169 kts | 238° |
| 2026-05-04 11:20 | 49.61258 | 6.17383 | 2719 ft | 175 kts | 238° |
| 2026-05-04 11:20 | 49.60618 | 6.15668 | 3051 ft | 196 kts | 237° |
| 2026-05-04 11:20 | 49.59883 | 6.13713 | 3299 ft | 227 kts | 238° |
| 2026-05-04 11:20 | 49.58970 | 6.11562 | 3593 ft | 249 kts | 223° |
| 2026-05-04 11:22 | 49.50748 | 6.23251 | 10255 ft | 283 kts | 127° |
| 2026-05-04 11:22 | 49.49403 | 6.25586 | 10525 ft | 302 kts | 143° |
| 2026-05-04 11:23 | 49.47594 | 6.27416 | 10742 ft | 322 kts | 156° |
| 2026-05-04 11:23 | 49.45483 | 6.28808 | 11164 ft | 336 kts | 160° |
| 2026-05-04 11:24 | 49.32029 | 6.38049 | 15074 ft | 367 kts | 158° |
| 2026-05-04 11:25 | 49.29689 | 6.39660 | 15778 ft | 370 kts | 158° |
| 2026-05-04 11:25 | 49.27335 | 6.41272 | 16454 ft | 374 kts | 158° |
| 2026-05-04 11:25 | 49.24937 | 6.42913 | 17137 ft | 378 kts | 158° |
| 2026-05-04 11:26 | 49.20336 | 6.46857 | 18474 ft | 389 kts | 145° |
| 2026-05-04 11:27 | 49.04809 | 6.64603 | 22060 ft | 408 kts | 146° |
| 2026-05-04 11:28 | 49.02516 | 6.67177 | 22527 ft | 410 kts | 149° |
| 2026-05-04 11:28 | 49.00034 | 6.69306 | 22983 ft | 409 kts | 159° |
| 2026-05-04 11:28 | 48.97353 | 6.70717 | 23443 ft | 408 kts | 169° |
| 2026-05-04 11:28 | 48.94550 | 6.71374 | 23845 ft | 408 kts | 178° |
| 2026-05-04 11:29 | 48.91705 | 6.71352 | 24230 ft | 409 kts | 183° |
| 2026-05-04 11:29 | 48.88852 | 6.71226 | 24625 ft | 411 kts | 183° |
| 2026-05-04 11:29 | 48.85994 | 6.71105 | 25015 ft | 412 kts | 183° |
| 2026-05-04 11:29 | 48.83118 | 6.70987 | 25414 ft | 414 kts | 183° |
| 2026-05-04 11:31 | 48.62674 | 6.70201 | 27931 ft | 426 kts | 184° |
| 2026-05-04 11:33 | 48.41876 | 6.69419 | 30721 ft | 423 kts | 184° |
| 2026-05-04 11:33 | 48.38922 | 6.69299 | 30973 ft | 423 kts | 184° |
| 2026-05-04 11:33 | 48.35991 | 6.69181 | 31030 ft | 421 kts | 184° |
| 2026-05-04 11:34 | 48.30151 | 6.68955 | 31030 ft | 419 kts | 184° |
| 2026-05-04 11:34 | 48.24325 | 6.68737 | 31024 ft | 419 kts | 184° |
| 2026-05-04 11:35 | 48.18506 | 6.68521 | 31030 ft | 417 kts | 184° |
| 2026-05-04 11:35 | 48.12702 | 6.68297 | 31030 ft | 417 kts | 184° |
| 2026-05-04 11:36 | 48.06899 | 6.68066 | 31029 ft | 417 kts | 184° |
| 2026-05-04 11:36 | 48.01103 | 6.67835 | 31022 ft | 416 kts | 184° |
| 2026-05-04 11:37 | 47.95317 | 6.67625 | 31024 ft | 416 kts | 184° |
| 2026-05-04 11:37 | 47.89528 | 6.67423 | 31024 ft | 416 kts | 184° |
| 2026-05-04 11:38 | 47.83783 | 6.67200 | 31024 ft | 416 kts | 184° |
| 2026-05-04 11:38 | 47.78009 | 6.66975 | 31019 ft | 415 kts | 184° |
| 2026-05-04 11:39 | 47.72228 | 6.66758 | 31025 ft | 415 kts | 184° |
| 2026-05-04 11:41 | 47.52021 | 6.66004 | 31033 ft | 415 kts | 184° |
| 2026-05-04 11:41 | 47.46244 | 6.65793 | 31034 ft | 415 kts | 184° |
| 2026-05-04 11:42 | 47.40591 | 6.64523 | 31033 ft | 411 kts | 200° |
| 2026-05-04 11:42 | 47.35608 | 6.60438 | 31025 ft | 412 kts | 218° |
| 2026-05-04 11:43 | 47.31241 | 6.54947 | 31015 ft | 413 kts | 219° |
| 2026-05-04 11:43 | 47.26870 | 6.49484 | 31013 ft | 412 kts | 218° |
| 2026-05-04 11:44 | 47.22490 | 6.44028 | 31014 ft | 412 kts | 218° |
| 2026-05-04 11:44 | 47.18114 | 6.38575 | 31008 ft | 413 kts | 218° |
| 2026-05-04 11:45 | 47.13730 | 6.33124 | 31008 ft | 413 kts | 218° |
| 2026-05-04 11:45 | 47.09324 | 6.27725 | 31007 ft | 412 kts | 214° |
| 2026-05-04 11:46 | 47.04215 | 6.24046 | 31011 ft | 411 kts | 196° |
| 2026-05-04 11:46 | 46.98544 | 6.22882 | 30996 ft | 412 kts | 186° |
| 2026-05-04 11:47 | 46.92833 | 6.22126 | 31000 ft | 412 kts | 186° |
| 2026-05-04 11:47 | 46.87111 | 6.21349 | 31008 ft | 413 kts | 187° |
| 2026-05-04 11:48 | 46.81381 | 6.20582 | 31010 ft | 413 kts | 186° |
| 2026-05-04 11:48 | 46.76616 | 6.19951 | 31005 ft | 414 kts | 186° |
| 2026-05-04 11:49 | 46.70873 | 6.19196 | 31005 ft | 415 kts | 186° |
| 2026-05-04 11:49 | 46.65119 | 6.18429 | 31009 ft | 415 kts | 186° |
| 2026-05-04 11:50 | 46.59368 | 6.17669 | 31023 ft | 416 kts | 186° |
| 2026-05-04 11:50 | 46.53600 | 6.16916 | 31026 ft | 416 kts | 186° |
| 2026-05-04 11:51 | 46.47835 | 6.16151 | 31034 ft | 416 kts | 186° |
| 2026-05-04 11:51 | 46.42064 | 6.15390 | 31035 ft | 416 kts | 186° |
| 2026-05-04 11:52 | 46.36293 | 6.14638 | 31060 ft | 417 kts | 186° |
| 2026-05-04 11:52 | 46.30509 | 6.13888 | 31061 ft | 417 kts | 186° |
| 2026-05-04 11:53 | 46.24722 | 6.13114 | 31058 ft | 418 kts | 187° |
| 2026-05-04 11:53 | 46.18963 | 6.11966 | 31057 ft | 417 kts | 190° |
| 2026-05-04 11:55 | 45.95974 | 6.06685 | 31056 ft | 420 kts | 189° |
| 2026-05-04 11:56 | 45.90190 | 6.05417 | 31060 ft | 421 kts | 190° |
| 2026-05-04 11:56 | 45.84395 | 6.04138 | 31063 ft | 421 kts | 190° |
| 2026-05-04 11:57 | 45.78593 | 6.02850 | 31056 ft | 422 kts | 190° |
| 2026-05-04 11:57 | 45.72790 | 6.01560 | 31062 ft | 423 kts | 190° |
| 2026-05-04 11:58 | 45.66976 | 6.00283 | 31067 ft | 423 kts | 190° |
| 2026-05-04 11:58 | 45.61155 | 5.99007 | 31072 ft | 423 kts | 190° |
| 2026-05-04 11:59 | 45.55321 | 5.97735 | 31070 ft | 424 kts | 190° |
| 2026-05-04 11:59 | 45.49580 | 5.95856 | 31069 ft | 423 kts | 202° |
| 2026-05-04 12:00 | 45.44599 | 5.91480 | 31066 ft | 423 kts | 221° |
| 2026-05-04 12:00 | 45.40434 | 5.85549 | 31050 ft | 424 kts | 224° |
| 2026-05-04 12:01 | 45.36277 | 5.79614 | 31066 ft | 424 kts | 224° |
| 2026-05-04 12:02 | 45.21745 | 5.58940 | 31040 ft | 422 kts | 224° |
| 2026-05-04 12:03 | 45.17600 | 5.53070 | 31041 ft | 421 kts | 224° |
| 2026-05-04 12:03 | 45.13457 | 5.47212 | 30263 ft | 423 kts | 224° |
| 2026-05-04 12:04 | 45.11368 | 5.44262 | 29008 ft | 426 kts | 224° |
| 2026-05-04 12:04 | 45.09260 | 5.41289 | 28338 ft | 428 kts | 224° |
| 2026-05-04 12:04 | 45.07141 | 5.38306 | 28067 ft | 431 kts | 224° |
| 2026-05-04 12:04 | 45.05016 | 5.35315 | 27846 ft | 432 kts | 224° |
| 2026-05-04 12:05 | 45.02882 | 5.32319 | 27460 ft | 432 kts | 224° |
| 2026-05-04 12:05 | 45.00744 | 5.29319 | 27080 ft | 433 kts | 224° |
| 2026-05-04 12:05 | 44.98604 | 5.26315 | 26724 ft | 435 kts | 224° |
| 2026-05-04 12:05 | 44.96459 | 5.23307 | 26345 ft | 436 kts | 224° |
| 2026-05-04 12:06 | 44.94300 | 5.20285 | 25965 ft | 438 kts | 224° |
| 2026-05-04 12:06 | 44.92132 | 5.17253 | 25581 ft | 439 kts | 224° |
| 2026-05-04 12:06 | 44.89953 | 5.14209 | 25195 ft | 441 kts | 224° |
| 2026-05-04 12:06 | 44.87777 | 5.11172 | 24777 ft | 440 kts | 224° |
| 2026-05-04 12:07 | 44.85604 | 5.08148 | 24397 ft | 438 kts | 224° |
| 2026-05-04 12:07 | 44.83440 | 5.05142 | 24012 ft | 436 kts | 224° |
| 2026-05-04 12:07 | 44.81284 | 5.02154 | 23625 ft | 434 kts | 224° |
| 2026-05-04 12:07 | 44.79136 | 4.99177 | 23211 ft | 432 kts | 224° |
| 2026-05-04 12:08 | 44.77000 | 4.96214 | 22828 ft | 430 kts | 224° |
| 2026-05-04 12:08 | 44.74873 | 4.93261 | 22450 ft | 428 kts | 224° |
| 2026-05-04 12:08 | 44.72644 | 4.90520 | 22070 ft | 425 kts | 216° |
| 2026-05-04 12:08 | 44.70156 | 4.88287 | 21245 ft | 424 kts | 208° |
| 2026-05-04 12:09 | 44.67520 | 4.86401 | 20121 ft | 427 kts | 207° |
| 2026-05-04 12:09 | 44.64872 | 4.84546 | 19512 ft | 419 kts | 206° |
| 2026-05-04 12:09 | 44.62319 | 4.82771 | 19386 ft | 399 kts | 206° |
| 2026-05-04 12:09 | 44.59880 | 4.81072 | 19264 ft | 383 kts | 206° |
| 2026-05-04 12:10 | 44.57544 | 4.79436 | 19146 ft | 369 kts | 206° |
| 2026-05-04 12:10 | 44.55230 | 4.78065 | 19012 ft | 356 kts | 198° |
| 2026-05-04 12:10 | 44.52836 | 4.77331 | 18664 ft | 350 kts | 191° |
| 2026-05-04 12:10 | 44.50479 | 4.76770 | 18241 ft | 347 kts | 191° |
| 2026-05-04 12:11 | 44.48113 | 4.76219 | 17834 ft | 343 kts | 190° |
| 2026-05-04 12:11 | 44.45764 | 4.75674 | 17455 ft | 341 kts | 191° |
| 2026-05-04 12:11 | 44.43433 | 4.75129 | 17075 ft | 339 kts | 191° |
| 2026-05-04 12:11 | 44.41115 | 4.74583 | 16704 ft | 336 kts | 191° |
| 2026-05-04 12:12 | 44.38814 | 4.74041 | 16336 ft | 334 kts | 190° |
| 2026-05-04 12:12 | 44.36530 | 4.73502 | 15957 ft | 332 kts | 190° |
| 2026-05-04 12:12 | 44.34255 | 4.72962 | 15597 ft | 330 kts | 190° |
| 2026-05-04 12:12 | 44.32001 | 4.72428 | 15231 ft | 328 kts | 190° |
| 2026-05-04 12:13 | 44.29749 | 4.71897 | 14873 ft | 327 kts | 190° |
| 2026-05-04 12:14 | 44.14330 | 4.68279 | 12347 ft | 315 kts | 189° |
| 2026-05-04 12:15 | 44.12153 | 4.68186 | 11991 ft | 315 kts | 176° |
| 2026-05-04 12:15 | 44.10005 | 4.68796 | 11662 ft | 316 kts | 163° |
| 2026-05-04 12:15 | 44.07965 | 4.69913 | 11314 ft | 315 kts | 160° |
| 2026-05-04 12:15 | 44.05941 | 4.71055 | 10965 ft | 313 kts | 160° |
| 2026-05-04 12:16 | 44.03925 | 4.72189 | 10617 ft | 311 kts | 160° |
| 2026-05-04 12:16 | 44.01939 | 4.73305 | 10373 ft | 302 kts | 160° |
| 2026-05-04 12:16 | 44.00032 | 4.74374 | 10225 ft | 289 kts | 160° |
| 2026-05-04 12:16 | 43.98203 | 4.75398 | 10071 ft | 279 kts | 160° |
| 2026-05-04 12:17 | 43.96414 | 4.76402 | 9889 ft | 274 kts | 160° |
| 2026-05-04 12:17 | 43.94653 | 4.77390 | 9745 ft | 273 kts | 160° |
| 2026-05-04 12:17 | 43.92898 | 4.78369 | 9510 ft | 271 kts | 161° |
| 2026-05-04 12:17 | 43.91145 | 4.79346 | 9240 ft | 271 kts | 160° |
| 2026-05-04 12:18 | 43.89401 | 4.80323 | 8962 ft | 270 kts | 160° |
| 2026-05-04 12:18 | 43.87660 | 4.81302 | 8690 ft | 270 kts | 160° |
| 2026-05-04 12:18 | 43.85917 | 4.82279 | 8419 ft | 270 kts | 160° |
| 2026-05-04 12:18 | 43.84185 | 4.83249 | 8145 ft | 267 kts | 160° |
| 2026-05-04 12:19 | 43.82473 | 4.84207 | 7876 ft | 265 kts | 160° |
| 2026-05-04 12:19 | 43.80767 | 4.85160 | 7607 ft | 264 kts | 160° |
| 2026-05-04 12:19 | 43.79096 | 4.86095 | 7345 ft | 260 kts | 160° |
| 2026-05-04 12:19 | 43.77431 | 4.87031 | 7085 ft | 257 kts | 159° |
| 2026-05-04 12:20 | 43.75780 | 4.87959 | 6818 ft | 255 kts | 160° |
| 2026-05-04 12:20 | 43.74138 | 4.88878 | 6560 ft | 253 kts | 160° |
| 2026-05-04 12:20 | 43.72513 | 4.89788 | 6290 ft | 248 kts | 160° |
| 2026-05-04 12:20 | 43.70962 | 4.90664 | 6038 ft | 234 kts | 161° |
| 2026-05-04 12:21 | 43.69502 | 4.91495 | 5810 ft | 219 kts | 160° |
| 2026-05-04 12:21 | 43.68144 | 4.92274 | 5592 ft | 207 kts | 160° |
| 2026-05-04 12:21 | 43.66821 | 4.93032 | 5383 ft | 205 kts | 160° |
| 2026-05-04 12:21 | 43.65496 | 4.93789 | 5171 ft | 206 kts | 159° |
| 2026-05-04 12:22 | 43.64184 | 4.94538 | 4950 ft | 203 kts | 159° |
| 2026-05-04 12:22 | 43.62890 | 4.95275 | 4749 ft | 199 kts | 160° |
| 2026-05-04 12:22 | 43.61640 | 4.96063 | 4535 ft | 196 kts | 148° |
| 2026-05-04 12:22 | 43.60638 | 4.97322 | 4343 ft | 194 kts | 137° |
| 2026-05-04 12:23 | 43.59690 | 4.98636 | 4148 ft | 192 kts | 137° |
| 2026-05-04 12:23 | 43.58761 | 4.99935 | 3949 ft | 188 kts | 135° |
| 2026-05-04 12:23 | 43.57862 | 5.01215 | 3719 ft | 183 kts | 134° |
| 2026-05-04 12:23 | 43.56994 | 5.02457 | 3517 ft | 177 kts | 134° |
| 2026-05-04 12:24 | 43.56154 | 5.03661 | 3264 ft | 171 kts | 133° |
| 2026-05-04 12:24 | 43.55349 | 5.04814 | 3031 ft | 163 kts | 133° |
| 2026-05-04 12:24 | 43.54576 | 5.05921 | 2810 ft | 157 kts | 133° |
| 2026-05-04 12:24 | 43.53844 | 5.06969 | 2605 ft | 145 kts | 133° |
| 2026-05-04 12:25 | 43.53182 | 5.07916 | 2421 ft | 131 kts | 132° |
| 2026-05-04 12:25 | 43.52564 | 5.08801 | 2252 ft | 126 kts | 132° |
| 2026-05-04 12:25 | 43.51958 | 5.09669 | 2085 ft | 124 kts | 132° |
| 2026-05-04 12:25 | 43.51362 | 5.10520 | 1928 ft | 123 kts | 132° |
| 2026-05-04 12:26 | 43.50774 | 5.11362 | 1766 ft | 122 kts | 133° |
| 2026-05-04 12:26 | 43.50194 | 5.12191 | 1601 ft | 122 kts | 133° |
| 2026-05-04 12:26 | 43.49605 | 5.13033 | 1417 ft | 122 kts | 134° |
| 2026-05-04 12:26 | 43.49020 | 5.13874 | 1238 ft | 121 kts | 133° |
| 2026-05-04 12:27 | 43.48449 | 5.14722 | 1090 ft | 120 kts | 133° |
| 2026-05-04 12:27 | 43.47865 | 5.15559 | 931 ft | 122 kts | 133° |
| 2026-05-04 12:27 | 43.47265 | 5.16402 | 743 ft | 124 kts | 132° |
| 2026-05-04 12:27 | 43.46662 | 5.17248 | 612 ft | 123 kts | 132° |
| 2026-05-04 12:28 | 43.46074 | 5.18086 | 458 ft | 123 kts | 131° |
| 2026-05-04 12:28 | 43.45466 | 5.18953 | 277 ft | 124 kts | 134° |
| 2026-05-04 12:28 | 43.44882 | 5.19775 | 86 ft | 120 kts | 133° |
| 2026-05-04 12:28 | 43.44337 | 5.20554 | 20 ft | 100 kts | 134° |
| 2026-05-04 12:29 | 43.43968 | 5.21078 | 26 ft | 51 kts | 134° |
| 2026-05-04 12:29 | 43.43838 | 5.21263 | 33 ft | 5 kts | 134° |
| 2026-05-04 12:29 | 43.43768 | 5.21363 | 36 ft | 29 kts | 134° |
| 2026-05-04 12:29 | 43.43593 | 5.21610 | 41 ft | 37 kts | 134° |
| 2026-05-04 12:30 | 43.43437 | 5.21836 | 47 ft | 29 kts | 133° |
| 2026-05-04 12:30 | 43.43336 | 5.22035 | 49 ft | 23 kts | 98° |
| 2026-05-04 12:30 | 43.43341 | 5.22225 | 50 ft | 0 kts | 69° |
| 2026-05-04 12:31 | 43.43343 | 5.22235 | 51 ft | 5 kts | 69° |
| 2026-05-04 12:31 | 43.43377 | 5.22276 | 54 ft | 10 kts | 24° |
| 2026-05-04 12:32 | 43.43458 | 5.22253 | 52 ft | 14 kts | 330° |
| 2026-05-04 12:32 | 43.43648 | 5.22110 | 46 ft | 16 kts | 348° |
| 2026-05-04 12:32 | 43.43728 | 5.22189 | 46 ft | 14 kts | 45° |
| 2026-05-04 12:33 | 43.43730 | 5.22291 | 47 ft | 9 kts | 96° |
| 2026-05-04 12:33 | 43.43742 | 5.22375 | 47 ft | 9 kts | 74° |
| 2026-05-04 12:33 | 43.43758 | 5.22453 | 47 ft | 8 kts | 74° |
| 2026-05-04 12:33 | 43.43782 | 5.22517 | 49 ft | 7 kts | 40° |
| 2026-05-04 12:34 | 43.43830 | 5.22551 | 46 ft | 8 kts | 23° |
| 2026-05-04 12:34 | 43.43889 | 5.22542 | 48 ft | 7 kts | 346° |
| 2026-05-04 12:34 | 43.43893 | 5.22541 | 48 ft | 0 kts | 346° |
| 2026-05-04 12:34 | 43.43894 | 5.22541 | 48 ft | 0 kts | 346° |
| 2026-05-04 12:35 | 43.43895 | 5.22532 | 47 ft | 1 kts | 281° |
| 2026-05-04 12:35 | 43.43886 | 5.22509 | 47 ft | 8 kts | 251° |
| 2026-05-04 12:35 | 43.43883 | 5.22479 | 45 ft | 0 kts | 263° |